sensor_id;sensor_type;location;lat;lon;timestamp;P1;durP1;ratioP1;P2;durP2;ratioP2
59846;SDS011;45728;48.788;2.302;2022-07-03T00:01:16;3.00;;;1.20;;
59846;SDS011;45728;48.788;2.302;2022-07-03T00:03:42;2.65;;;1.10;;
59846;SDS011;45728;48.788;2.302;2022-07-03T00:06:09;5.68;;;0.98;;
59846;SDS011;45728;48.788;2.302;2022-07-03T00:08:35;1.55;;;1.10;;
59846;SDS011;45728;48.788;2.302;2022-07-03T00:11:02;2.08;;;1.00;;
59846;SDS011;45728;48.788;2.302;2022-07-03T00:13:29;2.15;;;0.95;;
59846;SDS011;45728;48.788;2.302;2022-07-03T00:15:55;7.75;;;1.30;;
59846;SDS011;45728;48.788;2.302;2022-07-03T00:18:22;2.58;;;1.20;;
59846;SDS011;45728;48.788;2.302;2022-07-03T00:20:49;2.40;;;1.25;;
59846;SDS011;45728;48.788;2.302;2022-07-03T00:23:21;1.55;;;1.10;;
59846;SDS011;45728;48.788;2.302;2022-07-03T00:25:48;3.45;;;1.02;;
59846;SDS011;45728;48.788;2.302;2022-07-03T00:28:16;1.20;;;1.10;;
59846;SDS011;45728;48.788;2.302;2022-07-03T00:33:14;2.53;;;1.00;;
59846;SDS011;45728;48.788;2.302;2022-07-03T00:35:42;3.00;;;1.10;;
59846;SDS011;45728;48.788;2.302;2022-07-03T00:38:11;1.92;;;1.10;;
59846;SDS011;45728;48.788;2.302;2022-07-03T00:40:37;2.28;;;0.90;;
59846;SDS011;45728;48.788;2.302;2022-07-03T00:43:04;1.67;;;1.00;;
59846;SDS011;45728;48.788;2.302;2022-07-03T00:45:34;2.42;;;1.15;;
59846;SDS011;45728;48.788;2.302;2022-07-03T00:48:01;3.00;;;1.15;;
59846;SDS011;45728;48.788;2.302;2022-07-03T00:53:01;1.80;;;0.95;;
59846;SDS011;45728;48.788;2.302;2022-07-03T00:55:28;2.92;;;1.20;;
59846;SDS011;45728;48.788;2.302;2022-07-03T00:57:55;2.70;;;1.10;;
59846;SDS011;45728;48.788;2.302;2022-07-03T01:00:22;2.58;;;1.05;;
59846;SDS011;45728;48.788;2.302;2022-07-03T01:03:02;1.83;;;1.00;;
59846;SDS011;45728;48.788;2.302;2022-07-03T01:05:36;3.13;;;1.10;;
59846;SDS011;45728;48.788;2.302;2022-07-03T01:16:58;3.45;;;1.30;;
59846;SDS011;45728;48.788;2.302;2022-07-03T01:19:43;2.50;;;1.40;;
59846;SDS011;45728;48.788;2.302;2022-07-03T01:27:45;8.20;;;1.35;;
59846;SDS011;45728;48.788;2.302;2022-07-03T01:30:32;1.55;;;1.13;;
59846;SDS011;45728;48.788;2.302;2022-07-03T01:35:33;3.40;;;1.40;;
59846;SDS011;45728;48.788;2.302;2022-07-03T01:38:03;2.42;;;1.30;;
59846;SDS011;45728;48.788;2.302;2022-07-03T01:40:34;2.08;;;1.15;;
59846;SDS011;45728;48.788;2.302;2022-07-03T01:43:02;2.83;;;1.13;;
59846;SDS011;45728;48.788;2.302;2022-07-03T01:45:31;2.73;;;1.20;;
59846;SDS011;45728;48.788;2.302;2022-07-03T01:47:58;1.50;;;1.10;;
59846;SDS011;45728;48.788;2.302;2022-07-03T01:50:28;2.05;;;1.10;;
59846;SDS011;45728;48.788;2.302;2022-07-03T01:52:55;2.53;;;1.10;;
59846;SDS011;45728;48.788;2.302;2022-07-03T01:55:25;1.70;;;1.20;;
59846;SDS011;45728;48.788;2.302;2022-07-03T01:57:57;3.40;;;1.50;;
59846;SDS011;45728;48.788;2.302;2022-07-03T02:00:24;4.07;;;1.35;;
59846;SDS011;45728;48.788;2.302;2022-07-03T02:08:11;2.63;;;1.52;;
59846;SDS011;45728;48.788;2.302;2022-07-03T02:11:02;3.25;;;1.38;;
59846;SDS011;45728;48.788;2.302;2022-07-03T02:13:44;3.08;;;1.25;;
59846;SDS011;45728;48.788;2.302;2022-07-03T02:16:19;3.05;;;1.50;;
59846;SDS011;45728;48.788;2.302;2022-07-03T02:18:50;4.53;;;1.42;;
59846;SDS011;45728;48.788;2.302;2022-07-03T02:21:27;3.55;;;1.40;;
59846;SDS011;45728;48.788;2.302;2022-07-03T02:24:07;2.20;;;1.17;;
59846;SDS011;45728;48.788;2.302;2022-07-03T02:26:38;3.25;;;1.40;;
59846;SDS011;45728;48.788;2.302;2022-07-03T02:29:06;3.80;;;1.58;;
59846;SDS011;45728;48.788;2.302;2022-07-03T02:31:38;2.35;;;1.35;;
59846;SDS011;45728;48.788;2.302;2022-07-03T02:34:08;3.85;;;1.45;;
59846;SDS011;45728;48.788;2.302;2022-07-03T02:36:40;3.00;;;1.40;;
59846;SDS011;45728;48.788;2.302;2022-07-03T02:39:14;4.60;;;1.75;;
59846;SDS011;45728;48.788;2.302;2022-07-03T02:41:50;3.10;;;1.55;;
59846;SDS011;45728;48.788;2.302;2022-07-03T02:44:34;3.17;;;1.60;;
59846;SDS011;45728;48.788;2.302;2022-07-03T02:47:12;2.70;;;1.40;;
59846;SDS011;45728;48.788;2.302;2022-07-03T02:49:42;2.88;;;1.30;;
59846;SDS011;45728;48.788;2.302;2022-07-03T02:52:20;3.13;;;1.50;;
59846;SDS011;45728;48.788;2.302;2022-07-03T02:57:39;5.95;;;1.45;;
59846;SDS011;45728;48.788;2.302;2022-07-03T03:00:07;1.95;;;1.58;;
59846;SDS011;45728;48.788;2.302;2022-07-03T03:05:16;3.35;;;1.70;;
59846;SDS011;45728;48.788;2.302;2022-07-03T03:10:36;3.13;;;1.40;;
59846;SDS011;45728;48.788;2.302;2022-07-03T03:13:10;2.95;;;1.63;;
59846;SDS011;45728;48.788;2.302;2022-07-03T03:15:38;2.22;;;1.23;;
59846;SDS011;45728;48.788;2.302;2022-07-03T03:18:11;2.58;;;1.42;;
59846;SDS011;45728;48.788;2.302;2022-07-03T03:20:41;1.85;;;1.48;;
59846;SDS011;45728;48.788;2.302;2022-07-03T03:23:16;2.15;;;1.50;;
59846;SDS011;45728;48.788;2.302;2022-07-03T03:25:47;3.33;;;1.52;;
59846;SDS011;45728;48.788;2.302;2022-07-03T03:28:13;2.88;;;1.30;;
59846;SDS011;45728;48.788;2.302;2022-07-03T03:30:40;2.33;;;1.27;;
59846;SDS011;45728;48.788;2.302;2022-07-03T03:33:06;3.70;;;1.38;;
59846;SDS011;45728;48.788;2.302;2022-07-03T03:38:02;3.28;;;1.35;;
59846;SDS011;45728;48.788;2.302;2022-07-03T03:40:30;2.53;;;1.45;;
59846;SDS011;45728;48.788;2.302;2022-07-03T03:42:57;2.40;;;1.33;;
59846;SDS011;45728;48.788;2.302;2022-07-03T03:45:23;2.40;;;1.42;;
59846;SDS011;45728;48.788;2.302;2022-07-03T03:47:49;3.22;;;1.42;;
59846;SDS011;45728;48.788;2.302;2022-07-03T03:50:15;1.63;;;1.25;;
59846;SDS011;45728;48.788;2.302;2022-07-03T03:52:42;3.85;;;1.40;;
59846;SDS011;45728;48.788;2.302;2022-07-03T03:55:08;4.95;;;1.40;;
59846;SDS011;45728;48.788;2.302;2022-07-03T03:57:37;2.58;;;1.45;;
59846;SDS011;45728;48.788;2.302;2022-07-03T04:00:04;2.83;;;1.50;;
59846;SDS011;45728;48.788;2.302;2022-07-03T04:02:31;3.55;;;1.33;;
59846;SDS011;45728;48.788;2.302;2022-07-03T04:04:57;2.03;;;1.38;;
59846;SDS011;45728;48.788;2.302;2022-07-03T04:07:23;3.75;;;1.50;;
59846;SDS011;45728;48.788;2.302;2022-07-03T04:09:49;4.95;;;1.45;;
59846;SDS011;45728;48.788;2.302;2022-07-03T04:12:16;3.50;;;1.45;;
59846;SDS011;45728;48.788;2.302;2022-07-03T04:14:42;3.30;;;1.50;;
59846;SDS011;45728;48.788;2.302;2022-07-03T04:17:08;4.40;;;1.50;;
59846;SDS011;45728;48.788;2.302;2022-07-03T04:19:34;2.95;;;1.50;;
59846;SDS011;45728;48.788;2.302;2022-07-03T04:22:00;3.80;;;1.48;;
59846;SDS011;45728;48.788;2.302;2022-07-03T04:24:26;4.28;;;1.55;;
59846;SDS011;45728;48.788;2.302;2022-07-03T04:26:52;2.22;;;1.40;;
59846;SDS011;45728;48.788;2.302;2022-07-03T04:29:19;4.00;;;1.58;;
59846;SDS011;45728;48.788;2.302;2022-07-03T04:31:45;2.20;;;1.40;;
59846;SDS011;45728;48.788;2.302;2022-07-03T04:34:11;4.32;;;1.45;;
59846;SDS011;45728;48.788;2.302;2022-07-03T04:36:38;3.03;;;1.50;;
59846;SDS011;45728;48.788;2.302;2022-07-03T04:39:04;3.10;;;1.60;;
59846;SDS011;45728;48.788;2.302;2022-07-03T04:41:30;3.08;;;1.30;;
59846;SDS011;45728;48.788;2.302;2022-07-03T04:43:56;4.35;;;1.92;;
59846;SDS011;45728;48.788;2.302;2022-07-03T04:46:22;2.38;;;1.40;;
59846;SDS011;45728;48.788;2.302;2022-07-03T04:48:48;2.80;;;1.45;;
59846;SDS011;45728;48.788;2.302;2022-07-03T04:51:15;2.17;;;1.70;;
59846;SDS011;45728;48.788;2.302;2022-07-03T04:53:41;2.22;;;1.60;;
59846;SDS011;45728;48.788;2.302;2022-07-03T04:56:07;3.03;;;1.60;;
59846;SDS011;45728;48.788;2.302;2022-07-03T04:58:33;3.42;;;1.77;;
59846;SDS011;45728;48.788;2.302;2022-07-03T05:00:59;3.05;;;1.50;;
59846;SDS011;45728;48.788;2.302;2022-07-03T05:03:25;3.08;;;1.48;;
59846;SDS011;45728;48.788;2.302;2022-07-03T05:05:51;2.70;;;1.40;;
59846;SDS011;45728;48.788;2.302;2022-07-03T05:08:18;2.33;;;1.50;;
59846;SDS011;45728;48.788;2.302;2022-07-03T05:10:45;2.47;;;1.38;;
59846;SDS011;45728;48.788;2.302;2022-07-03T05:13:11;2.13;;;1.30;;
59846;SDS011;45728;48.788;2.302;2022-07-03T05:15:38;3.47;;;1.33;;
59846;SDS011;45728;48.788;2.302;2022-07-03T05:18:04;2.75;;;1.55;;
59846;SDS011;45728;48.788;2.302;2022-07-03T05:20:30;2.65;;;1.67;;
59846;SDS011;45728;48.788;2.302;2022-07-03T05:22:59;2.88;;;1.50;;
59846;SDS011;45728;48.788;2.302;2022-07-03T05:25:28;3.72;;;1.30;;
59846;SDS011;45728;48.788;2.302;2022-07-03T05:27:56;2.13;;;1.20;;
59846;SDS011;45728;48.788;2.302;2022-07-03T05:30:23;3.67;;;1.25;;
59846;SDS011;45728;48.788;2.302;2022-07-03T05:32:50;2.22;;;1.25;;
59846;SDS011;45728;48.788;2.302;2022-07-03T05:35:17;3.13;;;1.15;;
59846;SDS011;45728;48.788;2.302;2022-07-03T05:37:43;1.67;;;1.20;;
59846;SDS011;45728;48.788;2.302;2022-07-03T05:40:10;2.55;;;1.50;;
59846;SDS011;45728;48.788;2.302;2022-07-03T05:42:36;4.30;;;1.50;;
59846;SDS011;45728;48.788;2.302;2022-07-03T05:45:02;4.30;;;1.38;;
59846;SDS011;45728;48.788;2.302;2022-07-03T05:47:29;2.03;;;1.40;;
59846;SDS011;45728;48.788;2.302;2022-07-03T05:49:55;4.07;;;1.10;;
59846;SDS011;45728;48.788;2.302;2022-07-03T05:52:21;3.72;;;1.52;;
59846;SDS011;45728;48.788;2.302;2022-07-03T05:54:48;2.42;;;1.30;;
59846;SDS011;45728;48.788;2.302;2022-07-03T05:57:14;2.78;;;1.50;;
59846;SDS011;45728;48.788;2.302;2022-07-03T05:59:40;2.25;;;1.38;;
59846;SDS011;45728;48.788;2.302;2022-07-03T06:02:06;2.33;;;1.20;;
59846;SDS011;45728;48.788;2.302;2022-07-03T06:04:32;5.80;;;1.55;;
59846;SDS011;45728;48.788;2.302;2022-07-03T06:06:58;2.03;;;1.08;;
59846;SDS011;45728;48.788;2.302;2022-07-03T06:09:25;2.67;;;1.10;;
59846;SDS011;45728;48.788;2.302;2022-07-03T06:11:51;2.85;;;1.45;;
59846;SDS011;45728;48.788;2.302;2022-07-03T06:14:17;2.33;;;1.20;;
59846;SDS011;45728;48.788;2.302;2022-07-03T06:16:43;7.13;;;1.30;;
59846;SDS011;45728;48.788;2.302;2022-07-03T06:19:09;5.90;;;1.55;;
59846;SDS011;45728;48.788;2.302;2022-07-03T06:21:35;2.00;;;1.40;;
59846;SDS011;45728;48.788;2.302;2022-07-03T06:24:01;2.63;;;1.20;;
59846;SDS011;45728;48.788;2.302;2022-07-03T06:26:27;2.95;;;1.13;;
59846;SDS011;45728;48.788;2.302;2022-07-03T06:28:54;4.53;;;1.52;;
59846;SDS011;45728;48.788;2.302;2022-07-03T06:31:21;1.65;;;1.00;;
59846;SDS011;45728;48.788;2.302;2022-07-03T06:33:47;3.38;;;1.38;;
59846;SDS011;45728;48.788;2.302;2022-07-03T06:36:13;2.92;;;1.10;;
59846;SDS011;45728;48.788;2.302;2022-07-03T06:38:39;3.17;;;1.50;;
59846;SDS011;45728;48.788;2.302;2022-07-03T06:41:05;2.63;;;1.50;;
59846;SDS011;45728;48.788;2.302;2022-07-03T06:43:31;3.40;;;1.50;;
59846;SDS011;45728;48.788;2.302;2022-07-03T06:45:57;4.05;;;1.83;;
59846;SDS011;45728;48.788;2.302;2022-07-03T06:48:23;3.70;;;2.10;;
59846;SDS011;45728;48.788;2.302;2022-07-03T06:50:49;4.57;;;2.65;;
59846;SDS011;45728;48.788;2.302;2022-07-03T06:53:15;2.88;;;2.00;;
59846;SDS011;45728;48.788;2.302;2022-07-03T06:55:41;4.45;;;3.13;;
59846;SDS011;45728;48.788;2.302;2022-07-03T06:58:07;5.22;;;3.58;;
59846;SDS011;45728;48.788;2.302;2022-07-03T07:00:34;3.97;;;3.53;;
59846;SDS011;45728;48.788;2.302;2022-07-03T07:03:01;3.92;;;3.60;;
59846;SDS011;45728;48.788;2.302;2022-07-03T07:05:28;3.30;;;3.00;;
59846;SDS011;45728;48.788;2.302;2022-07-03T07:07:54;4.65;;;3.25;;
59846;SDS011;45728;48.788;2.302;2022-07-03T07:10:20;5.45;;;3.00;;
59846;SDS011;45728;48.788;2.302;2022-07-03T07:12:46;3.83;;;2.78;;
59846;SDS011;45728;48.788;2.302;2022-07-03T07:15:12;3.75;;;3.05;;
59846;SDS011;45728;48.788;2.302;2022-07-03T07:17:38;3.35;;;2.58;;
59846;SDS011;45728;48.788;2.302;2022-07-03T07:20:04;3.97;;;2.58;;
59846;SDS011;45728;48.788;2.302;2022-07-03T07:22:31;2.85;;;2.47;;
59846;SDS011;45728;48.788;2.302;2022-07-03T07:24:57;3.67;;;2.53;;
59846;SDS011;45728;48.788;2.302;2022-07-03T07:27:23;3.95;;;2.47;;
59846;SDS011;45728;48.788;2.302;2022-07-03T07:29:49;4.05;;;2.55;;
59846;SDS011;45728;48.788;2.302;2022-07-03T07:32:16;5.05;;;2.50;;
59846;SDS011;45728;48.788;2.302;2022-07-03T07:34:42;6.05;;;2.78;;
59846;SDS011;45728;48.788;2.302;2022-07-03T07:37:08;4.05;;;2.67;;
59846;SDS011;45728;48.788;2.302;2022-07-03T07:39:34;3.38;;;2.72;;
59846;SDS011;45728;48.788;2.302;2022-07-03T07:42:00;5.68;;;2.58;;
59846;SDS011;45728;48.788;2.302;2022-07-03T07:44:26;3.17;;;2.58;;
59846;SDS011;45728;48.788;2.302;2022-07-03T07:46:52;3.72;;;2.50;;
59846;SDS011;45728;48.788;2.302;2022-07-03T07:49:18;4.00;;;2.80;;
59846;SDS011;45728;48.788;2.302;2022-07-03T07:51:44;4.85;;;2.60;;
59846;SDS011;45728;48.788;2.302;2022-07-03T07:54:10;4.07;;;2.67;;
59846;SDS011;45728;48.788;2.302;2022-07-03T07:56:36;3.22;;;2.53;;
59846;SDS011;45728;48.788;2.302;2022-07-03T07:59:02;3.78;;;2.28;;
59846;SDS011;45728;48.788;2.302;2022-07-03T08:01:28;4.47;;;2.50;;
59846;SDS011;45728;48.788;2.302;2022-07-03T08:04:13;3.95;;;2.58;;
59846;SDS011;45728;48.788;2.302;2022-07-03T08:06:58;4.35;;;2.00;;
59846;SDS011;45728;48.788;2.302;2022-07-03T08:09:24;3.53;;;1.88;;
59846;SDS011;45728;48.788;2.302;2022-07-03T08:11:50;4.65;;;2.10;;
59846;SDS011;45728;48.788;2.302;2022-07-03T08:14:16;4.38;;;1.95;;
59846;SDS011;45728;48.788;2.302;2022-07-03T08:16:42;3.97;;;1.88;;
59846;SDS011;45728;48.788;2.302;2022-07-03T08:19:10;3.33;;;1.85;;
59846;SDS011;45728;48.788;2.302;2022-07-03T08:21:36;2.92;;;1.63;;
59846;SDS011;45728;48.788;2.302;2022-07-03T08:24:02;2.75;;;1.75;;
59846;SDS011;45728;48.788;2.302;2022-07-03T08:26:29;2.35;;;1.60;;
59846;SDS011;45728;48.788;2.302;2022-07-03T08:28:55;2.75;;;1.67;;
59846;SDS011;45728;48.788;2.302;2022-07-03T08:31:21;2.85;;;1.65;;
59846;SDS011;45728;48.788;2.302;2022-07-03T08:33:47;1.95;;;1.38;;
59846;SDS011;45728;48.788;2.302;2022-07-03T08:36:13;2.83;;;1.77;;
59846;SDS011;45728;48.788;2.302;2022-07-03T08:38:39;3.17;;;1.48;;
59846;SDS011;45728;48.788;2.302;2022-07-03T08:41:05;2.95;;;1.95;;
59846;SDS011;45728;48.788;2.302;2022-07-03T08:43:32;2.42;;;1.60;;
59846;SDS011;45728;48.788;2.302;2022-07-03T08:45:59;1.92;;;1.13;;
59846;SDS011;45728;48.788;2.302;2022-07-03T08:48:26;3.00;;;1.33;;
59846;SDS011;45728;48.788;2.302;2022-07-03T08:50:53;2.33;;;1.35;;
59846;SDS011;45728;48.788;2.302;2022-07-03T08:53:20;2.38;;;1.25;;
59846;SDS011;45728;48.788;2.302;2022-07-03T08:55:47;1.60;;;1.33;;
59846;SDS011;45728;48.788;2.302;2022-07-03T08:58:14;1.60;;;1.13;;
59846;SDS011;45728;48.788;2.302;2022-07-03T09:00:43;4.55;;;1.50;;
59846;SDS011;45728;48.788;2.302;2022-07-03T09:03:11;3.55;;;1.35;;
59846;SDS011;45728;48.788;2.302;2022-07-03T09:05:38;3.90;;;1.45;;
59846;SDS011;45728;48.788;2.302;2022-07-03T09:08:07;2.28;;;1.30;;
59846;SDS011;45728;48.788;2.302;2022-07-03T09:10:34;3.55;;;1.50;;
59846;SDS011;45728;48.788;2.302;2022-07-03T09:13:01;2.75;;;1.38;;
59846;SDS011;45728;48.788;2.302;2022-07-03T09:15:27;2.88;;;1.38;;
59846;SDS011;45728;48.788;2.302;2022-07-03T09:18:00;2.22;;;1.70;;
59846;SDS011;45728;48.788;2.302;2022-07-03T09:20:31;2.45;;;1.30;;
59846;SDS011;45728;48.788;2.302;2022-07-03T09:23:18;1.50;;;1.20;;
59846;SDS011;45728;48.788;2.302;2022-07-03T09:25:58;2.08;;;1.10;;
59846;SDS011;45728;48.788;2.302;2022-07-03T09:31:17;2.78;;;1.40;;
59846;SDS011;45728;48.788;2.302;2022-07-03T09:33:55;5.20;;;1.20;;
59846;SDS011;45728;48.788;2.302;2022-07-03T09:36:59;2.58;;;1.40;;
59846;SDS011;45728;48.788;2.302;2022-07-03T09:39:28;1.70;;;1.20;;
59846;SDS011;45728;48.788;2.302;2022-07-03T09:42:05;5.55;;;1.80;;
59846;SDS011;45728;48.788;2.302;2022-07-03T09:44:36;2.35;;;1.30;;
59846;SDS011;45728;48.788;2.302;2022-07-03T09:57:38;2.80;;;1.10;;
59846;SDS011;45728;48.788;2.302;2022-07-03T10:00:23;2.53;;;1.40;;
59846;SDS011;45728;48.788;2.302;2022-07-03T10:02:54;1.67;;;1.00;;
59846;SDS011;45728;48.788;2.302;2022-07-03T10:05:22;2.15;;;1.30;;
59846;SDS011;45728;48.788;2.302;2022-07-03T10:07:51;2.75;;;1.52;;
59846;SDS011;45728;48.788;2.302;2022-07-03T10:10:20;3.00;;;1.40;;
59846;SDS011;45728;48.788;2.302;2022-07-03T10:12:48;2.10;;;1.48;;
59846;SDS011;45728;48.788;2.302;2022-07-03T10:15:16;1.95;;;1.30;;
59846;SDS011;45728;48.788;2.302;2022-07-03T10:17:43;2.88;;;1.30;;
59846;SDS011;45728;48.788;2.302;2022-07-03T10:20:13;2.38;;;1.25;;
59846;SDS011;45728;48.788;2.302;2022-07-03T10:22:44;2.13;;;1.70;;
59846;SDS011;45728;48.788;2.302;2022-07-03T10:25:12;2.45;;;1.40;;
59846;SDS011;45728;48.788;2.302;2022-07-03T10:27:39;5.43;;;1.58;;
59846;SDS011;45728;48.788;2.302;2022-07-03T10:30:06;2.08;;;1.30;;
59846;SDS011;45728;48.788;2.302;2022-07-03T10:32:33;2.90;;;1.42;;
59846;SDS011;45728;48.788;2.302;2022-07-03T10:35:01;2.55;;;1.45;;
59846;SDS011;45728;48.788;2.302;2022-07-03T10:37:28;5.97;;;1.80;;
59846;SDS011;45728;48.788;2.302;2022-07-03T10:40:14;3.10;;;1.98;;
59846;SDS011;45728;48.788;2.302;2022-07-03T10:43:28;3.10;;;2.10;;
59846;SDS011;45728;48.788;2.302;2022-07-03T10:46:15;4.30;;;1.95;;
59846;SDS011;45728;48.788;2.302;2022-07-03T10:51:50;3.53;;;2.05;;
59846;SDS011;45728;48.788;2.302;2022-07-03T11:07:26;3.13;;;2.03;;
59846;SDS011;45728;48.788;2.302;2022-07-03T11:15:32;2.72;;;2.22;;
59846;SDS011;45728;48.788;2.302;2022-07-03T11:18:17;4.82;;;2.20;;
59846;SDS011;45728;48.788;2.302;2022-07-03T11:25:57;3.60;;;1.95;;
59846;SDS011;45728;48.788;2.302;2022-07-03T11:38:48;4.35;;;1.70;;
59846;SDS011;45728;48.788;2.302;2022-07-03T11:41:58;2.88;;;1.55;;
59846;SDS011;45728;48.788;2.302;2022-07-03T11:44:18;2.90;;;1.25;;
59846;SDS011;45728;48.788;2.302;2022-07-03T11:46:49;3.05;;;1.60;;
59846;SDS011;45728;48.788;2.302;2022-07-03T11:49:18;1.90;;;1.35;;
59846;SDS011;45728;48.788;2.302;2022-07-03T11:51:55;4.00;;;1.30;;
59846;SDS011;45728;48.788;2.302;2022-07-03T11:54:26;2.92;;;1.10;;
59846;SDS011;45728;48.788;2.302;2022-07-03T11:56:56;3.22;;;1.20;;
59846;SDS011;45728;48.788;2.302;2022-07-03T11:59:22;1.73;;;1.17;;
59846;SDS011;45728;48.788;2.302;2022-07-03T12:01:48;2.03;;;0.95;;
59846;SDS011;45728;48.788;2.302;2022-07-03T12:04:20;1.75;;;0.90;;
59846;SDS011;45728;48.788;2.302;2022-07-03T12:06:53;2.00;;;1.05;;
59846;SDS011;45728;48.788;2.302;2022-07-03T12:12:07;1.50;;;1.20;;
59846;SDS011;45728;48.788;2.302;2022-07-03T12:14:55;1.92;;;1.10;;
59846;SDS011;45728;48.788;2.302;2022-07-03T12:17:23;2.20;;;1.30;;
59846;SDS011;45728;48.788;2.302;2022-07-03T12:19:54;3.13;;;1.00;;
59846;SDS011;45728;48.788;2.302;2022-07-03T12:22:22;2.80;;;1.30;;
59846;SDS011;45728;48.788;2.302;2022-07-03T12:25:10;3.33;;;0.90;;
59846;SDS011;45728;48.788;2.302;2022-07-03T12:27:38;3.63;;;1.13;;
59846;SDS011;45728;48.788;2.302;2022-07-03T12:30:07;1.50;;;0.90;;
59846;SDS011;45728;48.788;2.302;2022-07-03T12:32:34;1.13;;;0.88;;
59846;SDS011;45728;48.788;2.302;2022-07-03T12:35:02;2.95;;;1.00;;
59846;SDS011;45728;48.788;2.302;2022-07-03T12:37:35;3.05;;;0.88;;
59846;SDS011;45728;48.788;2.302;2022-07-03T12:40:10;0.80;;;0.80;;
59846;SDS011;45728;48.788;2.302;2022-07-03T12:42:49;1.73;;;1.00;;
59846;SDS011;45728;48.788;2.302;2022-07-03T12:45:20;2.50;;;1.23;;
59846;SDS011;45728;48.788;2.302;2022-07-03T12:47:56;1.48;;;1.38;;
59846;SDS011;45728;48.788;2.302;2022-07-03T12:50:43;2.15;;;1.30;;
59846;SDS011;45728;48.788;2.302;2022-07-03T12:53:10;1.27;;;0.73;;
59846;SDS011;45728;48.788;2.302;2022-07-03T12:55:36;2.15;;;0.85;;
59846;SDS011;45728;48.788;2.302;2022-07-03T12:58:14;2.63;;;0.90;;
59846;SDS011;45728;48.788;2.302;2022-07-03T13:00:59;2.17;;;0.80;;
59846;SDS011;45728;48.788;2.302;2022-07-03T13:03:28;1.40;;;1.08;;
59846;SDS011;45728;48.788;2.302;2022-07-03T13:05:55;3.25;;;1.02;;
59846;SDS011;45728;48.788;2.302;2022-07-03T13:08:21;3.08;;;1.17;;
59846;SDS011;45728;48.788;2.302;2022-07-03T13:10:57;2.42;;;1.10;;
59846;SDS011;45728;48.788;2.302;2022-07-03T13:13:24;1.95;;;0.90;;
59846;SDS011;45728;48.788;2.302;2022-07-03T13:15:51;0.85;;;0.75;;
59846;SDS011;45728;48.788;2.302;2022-07-03T13:18:17;3.70;;;0.88;;
59846;SDS011;45728;48.788;2.302;2022-07-03T13:20:43;3.22;;;2.00;;
59846;SDS011;45728;48.788;2.302;2022-07-03T13:23:10;1.67;;;0.70;;
59846;SDS011;45728;48.788;2.302;2022-07-03T13:25:37;1.67;;;0.60;;
59846;SDS011;45728;48.788;2.302;2022-07-03T13:28:11;1.88;;;0.70;;
59846;SDS011;45728;48.788;2.302;2022-07-03T13:30:39;1.55;;;0.80;;
59846;SDS011;45728;48.788;2.302;2022-07-03T13:33:06;2.17;;;0.77;;
59846;SDS011;45728;48.788;2.302;2022-07-03T13:35:33;1.88;;;0.70;;
59846;SDS011;45728;48.788;2.302;2022-07-03T13:38:00;1.50;;;0.70;;
59846;SDS011;45728;48.788;2.302;2022-07-03T13:40:27;2.70;;;0.80;;
59846;SDS011;45728;48.788;2.302;2022-07-03T13:42:54;4.15;;;0.70;;
59846;SDS011;45728;48.788;2.302;2022-07-03T13:45:20;1.90;;;0.60;;
59846;SDS011;45728;48.788;2.302;2022-07-03T13:47:46;2.80;;;0.60;;
59846;SDS011;45728;48.788;2.302;2022-07-03T13:50:13;2.10;;;0.90;;
59846;SDS011;45728;48.788;2.302;2022-07-03T13:52:39;1.30;;;0.60;;
59846;SDS011;45728;48.788;2.302;2022-07-03T13:55:05;2.47;;;0.88;;
59846;SDS011;45728;48.788;2.302;2022-07-03T13:57:32;2.00;;;0.60;;
59846;SDS011;45728;48.788;2.302;2022-07-03T13:59:58;1.48;;;0.60;;
59846;SDS011;45728;48.788;2.302;2022-07-03T14:02:25;1.15;;;0.50;;
59846;SDS011;45728;48.788;2.302;2022-07-03T14:04:51;1.92;;;0.63;;
59846;SDS011;45728;48.788;2.302;2022-07-03T14:07:17;1.70;;;0.88;;
59846;SDS011;45728;48.788;2.302;2022-07-03T14:09:43;1.90;;;0.80;;
59846;SDS011;45728;48.788;2.302;2022-07-03T14:12:09;0.90;;;0.50;;
59846;SDS011;45728;48.788;2.302;2022-07-03T14:14:35;1.77;;;0.60;;
59846;SDS011;45728;48.788;2.302;2022-07-03T14:17:01;1.52;;;0.70;;
59846;SDS011;45728;48.788;2.302;2022-07-03T14:19:27;0.85;;;0.55;;
59846;SDS011;45728;48.788;2.302;2022-07-03T14:21:53;0.90;;;0.57;;
59846;SDS011;45728;48.788;2.302;2022-07-03T14:24:19;3.03;;;0.70;;
59846;SDS011;45728;48.788;2.302;2022-07-03T14:26:46;1.05;;;0.50;;
59846;SDS011;45728;48.788;2.302;2022-07-03T14:29:30;1.23;;;0.60;;
59846;SDS011;45728;48.788;2.302;2022-07-03T14:32:15;1.63;;;0.45;;
59846;SDS011;45728;48.788;2.302;2022-07-03T14:34:57;2.80;;;0.65;;
59846;SDS011;45728;48.788;2.302;2022-07-03T14:37:24;1.05;;;0.63;;
59846;SDS011;45728;48.788;2.302;2022-07-03T14:39:51;0.88;;;0.55;;
59846;SDS011;45728;48.788;2.302;2022-07-03T14:42:17;3.33;;;0.70;;
59846;SDS011;45728;48.788;2.302;2022-07-03T14:44:44;0.77;;;0.50;;
59846;SDS011;45728;48.788;2.302;2022-07-03T14:47:10;1.67;;;0.70;;
59846;SDS011;45728;48.788;2.302;2022-07-03T14:49:36;1.35;;;0.60;;
59846;SDS011;45728;48.788;2.302;2022-07-03T14:52:03;1.73;;;0.70;;
59846;SDS011;45728;48.788;2.302;2022-07-03T14:54:31;2.83;;;0.63;;
59846;SDS011;45728;48.788;2.302;2022-07-03T14:56:59;1.60;;;0.60;;
59846;SDS011;45728;48.788;2.302;2022-07-03T15:02:18;2.83;;;0.88;;
59846;SDS011;45728;48.788;2.302;2022-07-03T15:07:30;0.75;;;0.60;;
59846;SDS011;45728;48.788;2.302;2022-07-03T15:10:07;2.17;;;0.60;;
59846;SDS011;45728;48.788;2.302;2022-07-03T15:12:37;2.65;;;0.77;;
59846;SDS011;45728;48.788;2.302;2022-07-03T15:15:08;1.15;;;0.47;;
59846;SDS011;45728;48.788;2.302;2022-07-03T15:17:35;2.83;;;0.50;;
59846;SDS011;45728;48.788;2.302;2022-07-03T15:20:02;1.55;;;0.85;;
59846;SDS011;45728;48.788;2.302;2022-07-03T15:22:30;1.27;;;0.50;;
59846;SDS011;45728;48.788;2.302;2022-07-03T15:24:57;1.77;;;0.60;;
59846;SDS011;45728;48.788;2.302;2022-07-03T15:27:25;1.52;;;0.50;;
59846;SDS011;45728;48.788;2.302;2022-07-03T15:29:54;1.45;;;0.40;;
59846;SDS011;45728;48.788;2.302;2022-07-03T15:32:21;0.43;;;0.40;;
59846;SDS011;45728;48.788;2.302;2022-07-03T15:34:48;1.15;;;0.35;;
59846;SDS011;45728;48.788;2.302;2022-07-03T15:39:52;1.27;;;0.50;;
59846;SDS011;45728;48.788;2.302;2022-07-03T15:45:58;1.85;;;0.75;;
59846;SDS011;45728;48.788;2.302;2022-07-03T15:51:21;2.03;;;0.50;;
59846;SDS011;45728;48.788;2.302;2022-07-03T15:53:40;0.93;;;0.40;;
59846;SDS011;45728;48.788;2.302;2022-07-03T15:56:08;3.28;;;0.52;;
59846;SDS011;45728;48.788;2.302;2022-07-03T15:58:36;1.73;;;0.40;;
59846;SDS011;45728;48.788;2.302;2022-07-03T16:01:08;1.40;;;0.60;;
59846;SDS011;45728;48.788;2.302;2022-07-03T16:06:32;1.00;;;0.70;;
59846;SDS011;45728;48.788;2.302;2022-07-03T16:09:03;1.20;;;0.60;;
59846;SDS011;45728;48.788;2.302;2022-07-03T16:11:30;1.85;;;0.77;;
59846;SDS011;45728;48.788;2.302;2022-07-03T16:13:56;2.55;;;0.60;;
59846;SDS011;45728;48.788;2.302;2022-07-03T16:16:27;3.75;;;0.80;;
59846;SDS011;45728;48.788;2.302;2022-07-03T16:18:55;1.02;;;0.85;;
59846;SDS011;45728;48.788;2.302;2022-07-03T16:21:21;2.30;;;1.05;;
59846;SDS011;45728;48.788;2.302;2022-07-03T16:23:50;3.00;;;0.73;;
59846;SDS011;45728;48.788;2.302;2022-07-03T16:26:17;3.10;;;0.80;;
59846;SDS011;45728;48.788;2.302;2022-07-03T16:28:43;4.13;;;0.85;;
59846;SDS011;45728;48.788;2.302;2022-07-03T16:31:10;0.70;;;0.40;;
59846;SDS011;45728;48.788;2.302;2022-07-03T16:33:40;0.68;;;0.40;;
59846;SDS011;45728;48.788;2.302;2022-07-03T16:38:40;2.92;;;0.57;;
59846;SDS011;45728;48.788;2.302;2022-07-03T16:41:16;2.40;;;0.50;;
59846;SDS011;45728;48.788;2.302;2022-07-03T16:43:44;1.20;;;0.55;;
59846;SDS011;45728;48.788;2.302;2022-07-03T16:46:10;1.98;;;0.50;;
59846;SDS011;45728;48.788;2.302;2022-07-03T16:48:43;2.22;;;0.57;;
59846;SDS011;45728;48.788;2.302;2022-07-03T16:51:14;2.25;;;0.60;;